sensor_id;sensor_type;location;lat;lon;timestamp;P1;P2;P0
79038;PMS5003;68436;55.068;73.284;2023-07-28T00:00:45;1555.67;1458.67;1433.67
79038;PMS5003;68436;55.068;73.284;2023-07-28T00:03:14;292.00;170.00;132.50
79038;PMS5003;68436;55.068;73.284;2023-07-28T00:05:45;4000.00;4000.00;4000.00
79038;PMS5003;68436;55.068;73.284;2023-07-28T00:08:11;2206.50;2119.00;2086.00
79038;PMS5003;68436;55.068;73.284;2023-07-28T00:10:45;2722.67;2697.67;2692.33
79038;PMS5003;68436;55.068;73.284;2023-07-28T00:13:11;2105.00;2058.75;2047.50
79038;PMS5003;68436;55.068;73.284;2023-07-28T00:15:45;1518.00;1436.00;1414.00
79038;PMS5003;68436;55.068;73.284;2023-07-28T00:18:11;4000.00;4000.00;4000.00
79038;PMS5003;68436;55.068;73.284;2023-07-28T00:20:45;423.00;245.67;181.33
79038;PMS5003;68436;55.068;73.284;2023-07-28T00:23:11;377.50;224.00;141.75
79038;PMS5003;68436;55.068;73.284;2023-07-28T00:25:45;440.33;239.67;186.67
79038;PMS5003;68436;55.068;73.284;2023-07-28T00:28:11;1258.50;1139.75;1111.25
79038;PMS5003;68436;55.068;73.284;2023-07-28T00:30:48;4000.00;4000.00;4000.00
79038;PMS5003;68436;55.068;73.284;2023-07-28T00:33:15;460.50;278.75;153.75
79038;PMS5003;68436;55.068;73.284;2023-07-28T00:35:45;4000.00;4000.00;4000.00
79038;PMS5003;68436;55.068;73.284;2023-07-28T00:38:11;513.00;295.50;171.75
79038;PMS5003;68436;55.068;73.284;2023-07-28T00:40:45;394.00;226.33;147.67
79038;PMS5003;68436;55.068;73.284;2023-07-28T00:43:12;520.25;303.25;173.50
79038;PMS5003;68436;55.068;73.284;2023-07-28T00:45:45;627.33;337.33;230.67
79038;PMS5003;68436;55.068;73.284;2023-07-28T00:48:12;948.75;493.25;256.00
79038;PMS5003;68436;55.068;73.284;2023-07-28T00:50:46;631.67;349.00;252.00
79038;PMS5003;68436;55.068;73.284;2023-07-28T00:53:13;520.00;306.00;141.25
79038;PMS5003;68436;55.068;73.284;2023-07-28T00:55:45;475.00;285.50;154.50
79038;PMS5003;68436;55.068;73.284;2023-07-28T00:58:11;512.75;327.00;157.50
79038;PMS5003;68436;55.068;73.284;2023-07-28T01:00:45;457.00;271.00;172.67
79038;PMS5003;68436;55.068;73.284;2023-07-28T01:03:13;526.75;311.75;125.25
79038;PMS5003;68436;55.068;73.284;2023-07-28T01:08:32;513.25;306.00;166.25
79038;PMS5003;68436;55.068;73.284;2023-07-28T01:10:59;432.67;255.67;175.33
79038;PMS5003;68436;55.068;73.284;2023-07-28T01:13:25;752.00;380.00;251.75
79038;PMS5003;68436;55.068;73.284;2023-07-28T01:15:51;668.67;370.33;234.33
79038;PMS5003;68436;55.068;73.284;2023-07-28T01:18:17;670.00;371.75;217.50
79038;PMS5003;68436;55.068;73.284;2023-07-28T01:20:45;4000.00;4000.00;4000.00
79038;PMS5003;68436;55.068;73.284;2023-07-28T01:23:20;438.25;247.00;175.25
79038;PMS5003;68436;55.068;73.284;2023-07-28T01:25:53;383.75;276.75;160.75
79038;PMS5003;68436;55.068;73.284;2023-07-28T01:28:21;396.75;234.50;156.75
79038;PMS5003;68436;55.068;73.284;2023-07-28T01:30:47;352.00;259.00;158.00
79038;PMS5003;68436;55.068;73.284;2023-07-28T01:33:13;707.50;437.00;212.75
79038;PMS5003;68436;55.068;73.284;2023-07-28T01:35:45;652.00;378.00;233.00
79038;PMS5003;68436;55.068;73.284;2023-07-28T01:38:11;4000.00;4000.00;4000.00
79038;PMS5003;68436;55.068;73.284;2023-07-28T01:40:45;1475.00;1409.67;1401.00
79038;PMS5003;68436;55.068;73.284;2023-07-28T01:43:11;2035.00;2026.00;2009.75
79038;PMS5003;68436;55.068;73.284;2023-07-28T01:45:45;508.67;297.33;242.00
79038;PMS5003;68436;55.068;73.284;2023-07-28T01:48:11;4000.00;4000.00;4000.00
79038;PMS5003;68436;55.068;73.284;2023-07-28T01:50:45;4000.00;4000.00;4000.00
79038;PMS5003;68436;55.068;73.284;2023-07-28T01:53:11;4000.00;4000.00;4000.00
79038;PMS5003;68436;55.068;73.284;2023-07-28T01:55:45;4000.00;4000.00;4000.00
79038;PMS5003;68436;55.068;73.284;2023-07-28T01:58:11;4000.00;4000.00;4000.00
79038;PMS5003;68436;55.068;73.284;2023-07-28T02:00:45;4000.00;4000.00;4000.00
79038;PMS5003;68436;55.068;73.284;2023-07-28T02:03:12;4000.00;4000.00;4000.00
79038;PMS5003;68436;55.068;73.284;2023-07-28T02:05:45;2791.67;2754.00;2712.33
79038;PMS5003;68436;55.068;73.284;2023-07-28T02:08:11;4000.00;4000.00;4000.00
79038;PMS5003;68436;55.068;73.284;2023-07-28T02:10:45;4000.00;4000.00;4000.00
79038;PMS5003;68436;55.068;73.284;2023-07-28T02:13:11;4000.00;4000.00;4000.00
79038;PMS5003;68436;55.068;73.284;2023-07-28T02:15:45;2871.00;2780.67;2756.00
79038;PMS5003;68436;55.068;73.284;2023-07-28T02:18:11;226.00;218.75;77.75
79038;PMS5003;68436;55.068;73.284;2023-07-28T02:20:47;35.00;29.67;20.00
79038;PMS5003;68436;55.068;73.284;2023-07-28T02:23:13;37.00;32.00;21.00
79038;PMS5003;68436;55.068;73.284;2023-07-28T02:25:45;31.00;26.00;18.00
79038;PMS5003;68436;55.068;73.284;2023-07-28T02:28:11;27.50;24.00;16.00
79038;PMS5003;68436;55.068;73.284;2023-07-28T02:30:45;27.00;24.00;16.00
79038;PMS5003;68436;55.068;73.284;2023-07-28T02:33:11;26.00;23.00;16.00
79038;PMS5003;68436;55.068;73.284;2023-07-28T02:35:45;27.00;23.00;16.00
79038;PMS5003;68436;55.068;73.284;2023-07-28T02:38:13;27.00;24.00;16.00
79038;PMS5003;68436;55.068;73.284;2023-07-28T02:40:45;24.00;22.00;14.00
79038;PMS5003;68436;55.068;73.284;2023-07-28T02:43:11;27.00;24.00;16.00
79038;PMS5003;68436;55.068;73.284;2023-07-28T02:45:53;47.00;39.00;25.00
79038;PMS5003;68436;55.068;73.284;2023-07-28T02:48:19;42.25;33.00;21.00
79038;PMS5003;68436;55.068;73.284;2023-07-28T02:50:48;35.00;28.00;19.00
79038;PMS5003;68436;55.068;73.284;2023-07-28T02:53:15;30.75;26.50;18.00
79038;PMS5003;68436;55.068;73.284;2023-07-28T02:55:46;33.00;28.00;18.00
79038;PMS5003;68436;55.068;73.284;2023-07-28T02:58:12;43.00;35.75;23.50
79038;PMS5003;68436;55.068;73.284;2023-07-28T03:00:45;35.00;30.00;20.00
79038;PMS5003;68436;55.068;73.284;2023-07-28T03:03:16;34.75;29.50;19.00
79038;PMS5003;68436;55.068;73.284;2023-07-28T03:05:45;55.50;44.50;29.00
79038;PMS5003;68436;55.068;73.284;2023-07-28T03:08:30;30.50;26.50;18.00
79038;PMS5003;68436;55.068;73.284;2023-07-28T03:11:13;34.00;29.00;18.50
79038;PMS5003;68436;55.068;73.284;2023-07-28T03:13:39;33.75;29.00;19.00
79038;PMS5003;68436;55.068;73.284;2023-07-28T03:16:05;38.00;32.00;20.00
79038;PMS5003;68436;55.068;73.284;2023-07-28T03:18:31;37.00;31.00;20.00
79038;PMS5003;68436;55.068;73.284;2023-07-28T03:20:59;30.67;26.00;17.33
79038;PMS5003;68436;55.068;73.284;2023-07-28T03:23:25;36.25;30.25;20.00
79038;PMS5003;68436;55.068;73.284;2023-07-28T03:25:51;42.00;35.00;22.00
79038;PMS5003;68436;55.068;73.284;2023-07-28T03:28:17;31.25;25.50;18.00
79038;PMS5003;68436;55.068;73.284;2023-07-28T03:30:45;34.00;29.00;18.50
79038;PMS5003;68436;55.068;73.284;2023-07-28T03:33:12;36.75;30.25;20.00
79038;PMS5003;68436;55.068;73.284;2023-07-28T03:35:45;38.00;32.00;22.00
79038;PMS5003;68436;55.068;73.284;2023-07-28T03:38:12;50.25;41.00;26.00
79038;PMS5003;68436;55.068;73.284;2023-07-28T03:40:45;48.00;40.00;25.00
79038;PMS5003;68436;55.068;73.284;2023-07-28T03:43:11;45.00;38.00;26.00
79038;PMS5003;68436;55.068;73.284;2023-07-28T03:45:45;44.00;37.00;24.00
79038;PMS5003;68436;55.068;73.284;2023-07-28T03:48:11;36.50;31.25;21.00
79038;PMS5003;68436;55.068;73.284;2023-07-28T03:50:45;35.67;30.00;20.00
79038;PMS5003;68436;55.068;73.284;2023-07-28T03:53:11;37.00;30.00;20.00
79038;PMS5003;68436;55.068;73.284;2023-07-28T03:55:45;37.00;31.00;20.00
79038;PMS5003;68436;55.068;73.284;2023-07-28T03:58:11;33.00;27.50;19.00
79038;PMS5003;68436;55.068;73.284;2023-07-28T04:00:46;33.00;27.00;18.00
79038;PMS5003;68436;55.068;73.284;2023-07-28T04:03:11;38.00;31.50;20.00
79038;PMS5003;68436;55.068;73.284;2023-07-28T04:05:45;37.67;31.00;20.00
79038;PMS5003;68436;55.068;73.284;2023-07-28T04:08:11;38.00;31.00;20.00
79038;PMS5003;68436;55.068;73.284;2023-07-28T04:10:45;32.67;27.67;19.00
79038;PMS5003;68436;55.068;73.284;2023-07-28T04:13:12;36.00;30.00;20.00
79038;PMS5003;68436;55.068;73.284;2023-07-28T04:15:45;35.00;30.00;20.00
79038;PMS5003;68436;55.068;73.284;2023-07-28T04:18:11;35.00;30.00;20.00
79038;PMS5003;68436;55.068;73.284;2023-07-28T04:20:45;36.00;30.33;20.00
79038;PMS5003;68436;55.068;73.284;2023-07-28T04:23:12;35.75;29.75;21.00
79038;PMS5003;68436;55.068;73.284;2023-07-28T04:25:45;38.00;32.00;20.00
79038;PMS5003;68436;55.068;73.284;2023-07-28T04:28:11;31.00;27.00;18.00
79038;PMS5003;68436;55.068;73.284;2023-07-28T04:30:45;31.00;26.00;18.00
79038;PMS5003;68436;55.068;73.284;2023-07-28T04:33:27;28.00;25.00;18.00
79038;PMS5003;68436;55.068;73.284;2023-07-28T04:35:53;32.00;27.00;18.00
79038;PMS5003;68436;55.068;73.284;2023-07-28T04:38:28;29.00;25.00;17.00
79038;PMS5003;68436;55.068;73.284;2023-07-28T04:40:57;23.00;21.00;16.00
79038;PMS5003;68436;55.068;73.284;2023-07-28T04:43:36;35.75;28.00;17.75
79038;PMS5003;68436;55.068;73.284;2023-07-28T04:46:02;29.00;25.00;16.00
79038;PMS5003;68436;55.068;73.284;2023-07-28T04:48:29;29.00;25.50;17.50
79038;PMS5003;68436;55.068;73.284;2023-07-28T04:50:56;22.33;20.33;14.67
79038;PMS5003;68436;55.068;73.284;2023-07-28T04:53:42;24.75;23.00;16.00
79038;PMS5003;68436;55.068;73.284;2023-07-28T04:56:17;26.25;24.00;16.00
79038;PMS5003;68436;55.068;73.284;2023-07-28T04:58:43;27.00;24.00;17.00
79038;PMS5003;68436;55.068;73.284;2023-07-28T05:01:09;27.00;24.00;16.00
79038;PMS5003;68436;55.068;73.284;2023-07-28T05:03:36;44.00;36.00;23.75
79038;PMS5003;68436;55.068;73.284;2023-07-28T05:06:28;59.67;44.33;28.00
79038;PMS5003;68436;55.068;73.284;2023-07-28T05:08:54;25.00;22.25;15.00
79038;PMS5003;68436;55.068;73.284;2023-07-28T05:11:32;23.00;20.00;13.00
79038;PMS5003;68436;55.068;73.284;2023-07-28T05:13:57;24.50;22.00;13.00
79038;PMS5003;68436;55.068;73.284;2023-07-28T05:16:24;40.67;27.33;16.67
79038;PMS5003;68436;55.068;73.284;2023-07-28T05:19:04;24.00;21.00;13.00
79038;PMS5003;68436;55.068;73.284;2023-07-28T05:21:49;47.00;37.50;24.75
79038;PMS5003;68436;55.068;73.284;2023-07-28T05:24:18;65.00;51.00;32.00
79038;PMS5003;68436;55.068;73.284;2023-07-28T05:26:44;52.00;38.00;22.00
79038;PMS5003;68436;55.068;73.284;2023-07-28T05:29:11;50.00;37.50;23.00
79038;PMS5003;68436;55.068;73.284;2023-07-28T05:31:37;54.50;41.00;25.50
79038;PMS5003;68436;55.068;73.284;2023-07-28T05:34:09;54.00;41.00;26.00
79038;PMS5003;68436;55.068;73.284;2023-07-28T05:36:37;40.00;32.00;21.00
79038;PMS5003;68436;55.068;73.284;2023-07-28T05:39:03;36.00;29.00;20.00
79038;PMS5003;68436;55.068;73.284;2023-07-28T05:41:37;39.00;32.00;20.00
79038;PMS5003;68436;55.068;73.284;2023-07-28T05:44:03;37.00;29.25;18.00
79038;PMS5003;68436;55.068;73.284;2023-07-28T05:46:30;33.00;27.00;17.33
79038;PMS5003;68436;55.068;73.284;2023-07-28T05:48:57;49.00;40.00;25.00
79038;PMS5003;68436;55.068;73.284;2023-07-28T05:51:23;34.00;29.00;19.00
79038;PMS5003;68436;55.068;73.284;2023-07-28T05:53:49;39.00;32.00;20.00
79038;PMS5003;68436;55.068;73.284;2023-07-28T05:56:17;37.00;30.33;19.00
79038;PMS5003;68436;55.068;73.284;2023-07-28T05:58:44;35.00;27.50;17.25
79038;PMS5003;68436;55.068;73.284;2023-07-28T06:01:11;33.33;27.00;17.00
79038;PMS5003;68436;55.068;73.284;2023-07-28T06:03:56;37.00;31.00;20.00
79038;PMS5003;68436;55.068;73.284;2023-07-28T06:06:26;21.33;19.00;13.00
79038;PMS5003;68436;55.068;73.284;2023-07-28T06:08:53;21.25;18.25;12.75
79038;PMS5003;68436;55.068;73.284;2023-07-28T06:11:20;24.75;21.00;13.00
79038;PMS5003;68436;55.068;73.284;2023-07-28T06:13:47;24.75;22.00;13.00
79038;PMS5003;68436;55.068;73.284;2023-07-28T06:16:13;32.25;25.00;15.25
79038;PMS5003;68436;55.068;73.284;2023-07-28T06:18:40;33.00;27.00;17.00
79038;PMS5003;68436;55.068;73.284;2023-07-28T06:21:10;26.00;22.00;14.00
79038;PMS5003;68436;55.068;73.284;2023-07-28T06:23:36;35.00;29.00;19.00
79038;PMS5003;68436;55.068;73.284;2023-07-28T06:26:02;34.67;29.00;20.00
79038;PMS5003;68436;55.068;73.284;2023-07-28T06:28:29;35.50;29.00;19.25
79038;PMS5003;68436;55.068;73.284;2023-07-28T06:30:56;30.00;26.33;18.00
79038;PMS5003;68436;55.068;73.284;2023-07-28T06:33:23;30.00;25.00;17.00
79038;PMS5003;68436;55.068;73.284;2023-07-28T06:35:49;25.25;21.25;13.75
79038;PMS5003;68436;55.068;73.284;2023-07-28T06:38:15;19.25;17.00;12.00
79038;PMS5003;68436;55.068;73.284;2023-07-28T06:40:45;20.00;18.00;11.00
79038;PMS5003;68436;55.068;73.284;2023-07-28T06:43:11;21.00;18.75;13.00
79038;PMS5003;68436;55.068;73.284;2023-07-28T06:45:45;19.00;16.67;11.00
79038;PMS5003;68436;55.068;73.284;2023-07-28T06:48:11;21.50;19.25;13.00
79038;PMS5003;68436;55.068;73.284;2023-07-28T06:50:45;21.00;18.00;12.00
79038;PMS5003;68436;55.068;73.284;2023-07-28T06:53:11;28.75;24.50;16.00
79038;PMS5003;68436;55.068;73.284;2023-07-28T06:55:45;22.00;18.33;11.00
79038;PMS5003;68436;55.068;73.284;2023-07-28T06:58:11;26.50;22.75;15.00
79038;PMS5003;68436;55.068;73.284;2023-07-28T07:00:45;26.67;22.67;15.00
79038;PMS5003;68436;55.068;73.284;2023-07-28T07:03:11;34.00;29.00;19.00
79038;PMS5003;68436;55.068;73.284;2023-07-28T07:05:45;21.00;18.00;12.00
79038;PMS5003;68436;55.068;73.284;2023-07-28T07:08:11;21.00;19.00;12.00
79038;PMS5003;68436;55.068;73.284;2023-07-28T07:10:48;18.00;16.00;11.00
79038;PMS5003;68436;55.068;73.284;2023-07-28T07:13:15;20.00;17.00;11.00
79038;PMS5003;68436;55.068;73.284;2023-07-28T07:15:45;15.00;14.00;11.00
79038;PMS5003;68436;55.068;73.284;2023-07-28T07:18:11;16.00;15.00;10.75
79038;PMS5003;68436;55.068;73.284;2023-07-28T07:20:45;46.00;38.00;23.50
79038;PMS5003;68436;55.068;73.284;2023-07-28T07:23:11;44.25;36.75;22.75
79038;PMS5003;68436;55.068;73.284;2023-07-28T07:25:48;40.00;33.00;21.00
79038;PMS5003;68436;55.068;73.284;2023-07-28T07:28:14;25.00;21.00;13.00
79038;PMS5003;68436;55.068;73.284;2023-07-28T07:30:45;22.00;18.00;12.00
79038;PMS5003;68436;55.068;73.284;2023-07-28T07:33:11;54.75;45.00;30.00
79038;PMS5003;68436;55.068;73.284;2023-07-28T07:35:45;33.33;25.67;18.00
79038;PMS5003;68436;55.068;73.284;2023-07-28T07:38:11;25.00;22.00;13.00
79038;PMS5003;68436;55.068;73.284;2023-07-28T07:40:48;20.00;17.33;12.00
79038;PMS5003;68436;55.068;73.284;2023-07-28T07:43:14;31.00;26.00;18.00
79038;PMS5003;68436;55.068;73.284;2023-07-28T07:45:46;26.00;23.00;15.00
79038;PMS5003;68436;55.068;73.284;2023-07-28T07:48:17;33.00;27.00;17.00
79038;PMS5003;68436;55.068;73.284;2023-07-28T07:50:45;29.00;25.00;16.00
79038;PMS5003;68436;55.068;73.284;2023-07-28T07:53:11;24.00;21.00;14.00
79038;PMS5003;68436;55.068;73.284;2023-07-28T07:55:45;24.67;21.67;15.00
79038;PMS5003;68436;55.068;73.284;2023-07-28T07:58:11;24.00;22.00;14.00
79038;PMS5003;68436;55.068;73.284;2023-07-28T08:00:45;21.67;20.33;14.00
79038;PMS5003;68436;55.068;73.284;2023-07-28T08:03:11;14.00;14.00;10.00
79038;PMS5003;68436;55.068;73.284;2023-07-28T08:05:45;28.67;25.00;15.33
79038;PMS5003;68436;55.068;73.284;2023-07-28T08:08:11;31.25;27.00;18.00
79038;PMS5003;68436;55.068;73.284;2023-07-28T08:10:46;20.00;18.00;13.00
79038;PMS5003;68436;55.068;73.284;2023-07-28T08:13:13;15.75;14.25;9.75
79038;PMS5003;68436;55.068;73.284;2023-07-28T08:15:45;36.50;30.50;19.00
79038;PMS5003;68436;55.068;73.284;2023-07-28T08:18:12;48.00;35.00;21.00
79038;PMS5003;68436;55.068;73.284;2023-07-28T08:20:45;14.00;13.00;8.00
79038;PMS5003;68436;55.068;73.284;2023-07-28T08:23:11;13.00;12.00;9.00
79038;PMS5003;68436;55.068;73.284;2023-07-28T08:25:45;18.00;15.00;10.33
79038;PMS5003;68436;55.068;73.284;2023-07-28T08:28:11;27.25;23.50;16.00
79038;PMS5003;68436;55.068;73.284;2023-07-28T08:30:52;17.00;16.00;11.00
79038;PMS5003;68436;55.068;73.284;2023-07-28T08:33:18;25.00;22.00;14.25
79038;PMS5003;68436;55.068;73.284;2023-07-28T08:35:45;17.00;15.00;9.00
79038;PMS5003;68436;55.068;73.284;2023-07-28T08:38:11;17.00;15.00;11.00
79038;PMS5003;68436;55.068;73.284;2023-07-28T08:40:45;18.00;15.33;10.00
79038;PMS5003;68436;55.068;73.284;2023-07-28T08:43:11;15.00;14.00;10.00
79038;PMS5003;68436;55.068;73.284;2023-07-28T08:45:45;14.33;14.00;10.00
79038;PMS5003;68436;55.068;73.284;2023-07-28T08:48:11;23.25;18.75;12.75
79038;PMS5003;68436;55.068;73.284;2023-07-28T08:50:45;18.00;15.00;10.00
79038;PMS5003;68436;55.068;73.284;2023-07-28T08:53:12;21.00;18.75;12.00
79038;PMS5003;68436;55.068;73.284;2023-07-28T08:55:45;19.00;17.00;12.00
79038;PMS5003;68436;55.068;73.284;2023-07-28T09:00:48;14.00;13.00;9.00
79038;PMS5003;68436;55.068;73.284;2023-07-28T09:03:15;12.00;11.00;8.75
79038;PMS5003;68436;55.068;73.284;2023-07-28T09:05:46;13.00;12.00;8.00
79038;PMS5003;68436;55.068;73.284;2023-07-28T09:08:22;13.00;12.00;8.00
79038;PMS5003;68436;55.068;73.284;2023-07-28T09:10:49;22.75;21.00;14.75
79038;PMS5003;68436;55.068;73.284;2023-07-28T09:13:16;12.00;11.50;7.50
79038;PMS5003;68436;55.068;73.284;2023-07-28T09:15:45;29.00;24.50;16.00
79038;PMS5003;68436;55.068;73.284;2023-07-28T09:18:13;17.00;16.00;10.00
79038;PMS5003;68436;55.068;73.284;2023-07-28T09:20:45;15.00;13.00;9.00
79038;PMS5003;68436;55.068;73.284;2023-07-28T09:23:13;14.00;13.00;9.00
79038;PMS5003;68436;55.068;73.284;2023-07-28T09:25:45;20.00;16.00;10.00
79038;PMS5003;68436;55.068;73.284;2023-07-28T09:28:11;19.50;15.50;10.00
79038;PMS5003;68436;55.068;73.284;2023-07-28T09:30:48;13.00;12.00;9.00
79038;PMS5003;68436;55.068;73.284;2023-07-28T09:33:36;12.00;11.00;8.00
79038;PMS5003;68436;55.068;73.284;2023-07-28T09:36:08;12.33;12.00;10.00
79038;PMS5003;68436;55.068;73.284;2023-07-28T09:38:38;12.00;11.00;7.75
79038;PMS5003;68436;55.068;73.284;2023-07-28T09:41:05;19.00;16.00;11.00
79038;PMS5003;68436;55.068;73.284;2023-07-28T09:43:34;14.00;14.00;11.00
79038;PMS5003;68436;55.068;73.284;2023-07-28T09:46:01;14.50;13.25;9.00
79038;PMS5003;68436;55.068;73.284;2023-07-28T09:48:28;10.50;9.50;7.00
79038;PMS5003;68436;55.068;73.284;2023-07-28T09:50:56;18.00;17.00;12.00
79038;PMS5003;68436;55.068;73.284;2023-07-28T09:53:24;11.50;10.75;7.00
79038;PMS5003;68436;55.068;73.284;2023-07-28T09:55:52;8.00;8.00;6.00
79038;PMS5003;68436;55.068;73.284;2023-07-28T09:58:18;10.00;9.25;7.00
79038;PMS5003;68436;55.068;73.284;2023-07-28T10:00:46;15.00;12.00;8.00
79038;PMS5003;68436;55.068;73.284;2023-07-28T10:03:12;11.00;10.00;7.00
79038;PMS5003;68436;55.068;73.284;2023-07-28T10:05:45;11.00;11.00;7.00
79038;PMS5003;68436;55.068;73.284;2023-07-28T10:08:12;21.25;19.25;12.50
79038;PMS5003;68436;55.068;73.284;2023-07-28T10:10:46;12.00;11.00;8.00
79038;PMS5003;68436;55.068;73.284;2023-07-28T10:13:19;9.00;8.00;6.00
79038;PMS5003;68436;55.068;73.284;2023-07-28T10:15:45;13.50;11.50;8.00
79038;PMS5003;68436;55.068;73.284;2023-07-28T10:18:11;16.50;15.00;10.00
79038;PMS5003;68436;55.068;73.284;2023-07-28T10:20:45;27.00;24.00;15.33
79038;PMS5003;68436;55.068;73.284;2023-07-28T10:23:15;14.00;12.00;8.00
79038;PMS5003;68436;55.068;73.284;2023-07-28T10:25:45;12.00;11.00;8.00
79038;PMS5003;68436;55.068;73.284;2023-07-28T10:28:28;17.00;15.00;10.00
79038;PMS5003;68436;55.068;73.284;2023-07-28T10:30:57;15.00;14.00;11.00
79038;PMS5003;68436;55.068;73.284;2023-07-28T10:33:30;21.50;19.00;12.00
79038;PMS5003;68436;55.068;73.284;2023-07-28T10:35:58;45.00;35.00;21.00
79038;PMS5003;68436;55.068;73.284;2023-07-28T10:38:28;23.25;21.00;14.00
79038;PMS5003;68436;55.068;73.284;2023-07-28T10:41:04;19.25;18.00;12.00
79038;PMS5003;68436;55.068;73.284;2023-07-28T10:43:30;19.00;17.00;12.00
79038;PMS5003;68436;55.068;73.284;2023-07-28T10:45:56;21.67;17.67;12.00
79038;PMS5003;68436;55.068;73.284;2023-07-28T10:48:22;40.75;31.50;19.25
79038;PMS5003;68436;55.068;73.284;2023-07-28T10:50:53;33.00;27.00;17.00
79038;PMS5003;68436;55.068;73.284;2023-07-28T10:53:19;23.50;20.50;14.00
79038;PMS5003;68436;55.068;73.284;2023-07-28T10:55:45;14.50;14.00;10.00
79038;PMS5003;68436;55.068;73.284;2023-07-28T10:58:11;31.50;27.00;17.00
79038;PMS5003;68436;55.068;73.284;2023-07-28T11:00:45;29.00;25.00;16.00
79038;PMS5003;68436;55.068;73.284;2023-07-28T11:03:11;14.50;14.00;9.00
79038;PMS5003;68436;55.068;73.284;2023-07-28T11:05:45;10.50;10.50;8.00
79038;PMS5003;68436;55.068;73.284;2023-07-28T11:08:13;18.00;16.75;12.00
79038;PMS5003;68436;55.068;73.284;2023-07-28T11:10:45;21.00;18.00;13.00
79038;PMS5003;68436;55.068;73.284;2023-07-28T11:13:11;14.00;13.00;9.00
79038;PMS5003;68436;55.068;73.284;2023-07-28T11:15:45;15.00;14.00;10.00
79038;PMS5003;68436;55.068;73.284;2023-07-28T11:18:11;16.00;15.00;10.00
79038;PMS5003;68436;55.068;73.284;2023-07-28T11:20:45;17.00;15.00;12.00
79038;PMS5003;68436;55.068;73.284;2023-07-28T11:23:13;33.75;28.00;19.00
79038;PMS5003;68436;55.068;73.284;2023-07-28T11:25:45;37.00;30.00;20.00
79038;PMS5003;68436;55.068;73.284;2023-07-28T11:28:13;20.25;18.75;13.25
79038;PMS5003;68436;55.068;73.284;2023-07-28T11:30:45;39.00;34.00;23.00
79038;PMS5003;68436;55.068;73.284;2023-07-28T11:33:13;31.50;27.75;19.00
79038;PMS5003;68436;55.068;73.284;2023-07-28T11:35:45;22.00;20.00;13.00
79038;PMS5003;68436;55.068;73.284;2023-07-28T11:38:12;32.75;26.50;18.00
79038;PMS5003;68436;55.068;73.284;2023-07-28T11:40:45;35.00;31.00;20.00
79038;PMS5003;68436;55.068;73.284;2023-07-28T11:43:11;19.75;17.00;13.00
79038;PMS5003;68436;55.068;73.284;2023-07-28T11:45:45;33.00;28.33;20.00
79038;PMS5003;68436;55.068;73.284;2023-07-28T11:48:11;23.00;21.00;15.00
79038;PMS5003;68436;55.068;73.284;2023-07-28T11:50:45;26.00;23.00;15.00
79038;PMS5003;68436;55.068;73.284;2023-07-28T11:53:11;27.25;23.50;16.00
79038;PMS5003;68436;55.068;73.284;2023-07-28T11:55:45;14.00;14.00;11.00
79038;PMS5003;68436;55.068;73.284;2023-07-28T11:58:12;15.00;15.00;11.00
79038;PMS5003;68436;55.068;73.284;2023-07-28T12:00:45;13.00;12.33;8.00
79038;PMS5003;68436;55.068;73.284;2023-07-28T12:03:12;14.00;13.00;10.00
79038;PMS5003;68436;55.068;73.284;2023-07-28T12:05:58;16.00;15.00;10.00
79038;PMS5003;68436;55.068;73.284;2023-07-28T12:08:36;16.00;14.00;10.00
79038;PMS5003;68436;55.068;73.284;2023-07-28T12:11:02;14.25;14.00;10.00
79038;PMS5003;68436;55.068;73.284;2023-07-28T12:13:28;14.00;14.00;10.00
79038;PMS5003;68436;55.068;73.284;2023-07-28T12:15:54;16.00;15.00;11.00
79038;PMS5003;68436;55.068;73.284;2023-07-28T12:18:20;17.00;15.25;12.00
79038;PMS5003;68436;55.068;73.284;2023-07-28T12:20:49;16.00;14.67;11.00
79038;PMS5003;68436;55.068;73.284;2023-07-28T12:23:16;16.50;15.00;11.00
79038;PMS5003;68436;55.068;73.284;2023-07-28T12:25:46;19.50;18.00;12.00
79038;PMS5003;68436;55.068;73.284;2023-07-28T12:28:12;16.00;15.00;11.00
79038;PMS5003;68436;55.068;73.284;2023-07-28T12:30:45;19.00;17.00;11.00
79038;PMS5003;68436;55.068;73.284;2023-07-28T12:33:14;19.00;17.00;12.00
79038;PMS5003;68436;55.068;73.284;2023-07-28T12:35:45;20.00;19.00;13.00
79038;PMS5003;68436;55.068;73.284;2023-07-28T12:38:11;17.00;16.00;12.00
79038;PMS5003;68436;55.068;73.284;2023-07-28T12:40:45;38.00;30.00;21.00
79038;PMS5003;68436;55.068;73.284;2023-07-28T12:43:11;35.25;29.50;19.00
79038;PMS5003;68436;55.068;73.284;2023-07-28T12:45:45;28.67;25.00;17.00
79038;PMS5003;68436;55.068;73.284;2023-07-28T12:48:13;36.25;31.25;22.00
79038;PMS5003;68436;55.068;73.284;2023-07-28T12:50:45;20.50;18.00;12.00
79038;PMS5003;68436;55.068;73.284;2023-07-28T12:53:12;20.00;18.00;12.00
79038;PMS5003;68436;55.068;73.284;2023-07-28T12:55:45;15.67;14.00;10.00
79038;PMS5003;68436;55.068;73.284;2023-07-28T12:58:11;19.75;18.00;14.00
79038;PMS5003;68436;55.068;73.284;2023-07-28T13:00:45;47.00;39.00;25.00
79038;PMS5003;68436;55.068;73.284;2023-07-28T13:03:11;37.00;32.00;21.00
79038;PMS5003;68436;55.068;73.284;2023-07-28T13:05:46;19.00;17.00;12.00
79038;PMS5003;68436;55.068;73.284;2023-07-28T13:08:13;21.00;19.00;14.00
79038;PMS5003;68436;55.068;73.284;2023-07-28T13:10:45;20.00;18.00;12.00
79038;PMS5003;68436;55.068;73.284;2023-07-28T13:13:12;17.25;16.50;12.00
79038;PMS5003;68436;55.068;73.284;2023-07-28T13:15:45;17.00;16.00;10.00
79038;PMS5003;68436;55.068;73.284;2023-07-28T13:18:11;16.00;15.00;11.00
79038;PMS5003;68436;55.068;73.284;2023-07-28T13:20:45;16.00;14.67;11.00
79038;PMS5003;68436;55.068;73.284;2023-07-28T13:23:11;16.00;14.25;11.00
79038;PMS5003;68436;55.068;73.284;2023-07-28T13:25:45;17.00;15.00;11.00
79038;PMS5003;68436;55.068;73.284;2023-07-28T13:28:11;21.75;19.00;13.00
79038;PMS5003;68436;55.068;73.284;2023-07-28T13:30:45;17.00;16.00;12.00
79038;PMS5003;68436;55.068;73.284;2023-07-28T13:33:11;35.25;30.25;21.00
79038;PMS5003;68436;55.068;73.284;2023-07-28T13:35:45;22.67;21.00;15.00
79038;PMS5003;68436;55.068;73.284;2023-07-28T13:38:11;20.00;19.00;12.00
79038;PMS5003;68436;55.068;73.284;2023-07-28T13:40:45;19.00;17.00;13.00
79038;PMS5003;68436;55.068;73.284;2023-07-28T13:43:11;19.00;17.00;12.00
79038;PMS5003;68436;55.068;73.284;2023-07-28T13:45:45;35.00;29.00;18.00